Time;durP1;ratioP1;P1;durP2;ratioP2;P2;SDS_P1;SDS_P2;PMS_P1;PMS_P2;Temp;Humidity;BMP_temperature;BMP_pressure;BME280_temperature;BME280_humidity;BME280_pressure;Samples;Min_cycle;Max_cycle;Signal;HPM_P1;HPM_P2
2022/08/12 00:45:08;;;;;;;0.00;0.00;;;18.00;99.90;;;;;;4980993;28;20453;-68
2022/08/12 00:47:39;;;;;;;0.00;0.00;;;18.00;99.90;;;;;;4979605;28;21034;-68
2022/08/12 00:50:16;;;;;;;0.00;0.00;;;18.00;99.90;;;;;;4980046;28;20444;-67
2022/08/12 00:52:45;;;;;;;0.00;0.00;;;18.00;99.90;;;;;;4979768;28;20465;-67
2022/08/12 00:55:14;;;;;;;0.00;0.00;;;18.00;99.90;;;;;;4979750;28;20443;-68
2022/08/12 00:57:46;;;;;;;0.00;0.00;;;17.90;99.90;;;;;;4979717;28;20517;-68
2022/08/12 01:00:20;;;;;;;0.00;0.00;;;17.90;99.90;;;;;;4979440;28;20533;-68
2022/08/12 01:02:51;;;;;;;0.00;0.00;;;17.80;99.90;;;;;;4980640;28;21075;-69
2022/08/12 01:13:46;;;;;;;0.00;0.00;;;17.80;99.90;;;;;;4979887;28;20447;-74
2022/08/12 01:16:16;;;;;;;0.00;0.00;;;17.80;99.90;;;;;;4979825;28;20445;-74
2022/08/12 01:18:45;;;;;;;0.00;0.00;;;17.80;99.90;;;;;;4979858;28;20489;-75
2022/08/12 01:21:40;;;;;;;0.00;0.00;;;17.90;99.90;;;;;;4978801;28;21198;-76
2022/08/12 01:24:20;;;;;;;0.00;0.00;;;17.90;99.90;;;;;;4978469;28;20457;-74
2022/08/12 01:27:01;;;;;;;0.00;0.00;;;17.90;99.90;;;;;;4977836;28;20456;-74
2022/08/12 01:29:33;;;;;;;0.00;0.00;;;17.90;99.90;;;;;;4978656;28;20478;-74
2022/08/12 01:32:07;;;;;;;0.00;0.00;;;17.80;99.90;;;;;;4978471;28;20833;-75
2022/08/12 01:34:37;;;;;;;0.00;0.00;;;17.80;99.90;;;;;;4977651;28;20441;-74
2022/08/12 01:37:07;;;;;;;0.00;0.00;;;17.80;99.90;;;;;;4978318;28;20445;-75
2022/08/12 01:39:39;;;;;;;0.00;0.00;;;17.80;99.90;;;;;;4978063;28;20572;-74
2022/08/12 01:42:32;;;;;;;0.00;0.00;;;17.80;99.90;;;;;;4979131;28;20441;-73
2022/08/12 01:45:02;;;;;;;0.00;0.00;;;17.80;99.90;;;;;;4978504;28;20453;-74
2022/08/12 01:47:46;;;;;;;0.00;0.00;;;17.70;99.90;;;;;;4979038;28;20955;-74
2022/08/12 01:50:21;;;;;;;0.00;0.00;;;17.70;99.90;;;;;;4978603;28;20451;-75
2022/08/12 01:53:00;;;;;;;0.00;0.00;;;17.70;99.90;;;;;;4978463;28;21051;-73
2022/08/12 01:55:32;;;;;;;0.00;0.00;;;17.70;99.90;;;;;;4978619;28;20532;-74
2022/08/12 01:58:22;;;;;;;0.00;0.00;;;17.70;99.90;;;;;;4978646;28;20572;-74
2022/08/12 02:00:57;;;;;;;0.00;0.00;;;17.60;99.90;;;;;;4978245;28;20439;-73
2022/08/12 02:12:39;;;;;;;0.00;0.00;;;17.50;99.90;;;;;;4982933;28;20445;-73
2022/08/12 02:15:21;;;;;;;0.00;0.00;;;17.50;99.90;;;;;;4982368;28;20434;-71
2022/08/12 02:24:07;;;;;;;0.00;0.00;;;17.40;99.90;;;;;;4918407;29;20581;-89
2022/08/12 02:26:47;;;;;;;0.00;0.00;;;17.40;99.90;;;;;;4925404;29;20529;-92
2022/08/12 02:53:08;;;;;;;0.00;0.00;;;17.00;99.90;;;;;;4970688;23;20491;-75
2022/08/12 02:55:36;;;;;;;0.00;0.00;;;17.00;99.90;;;;;;4963934;28;20201;-75
2022/08/12 02:58:08;;;;;;;0.00;0.00;;;17.00;99.90;;;;;;4963806;28;20468;-74
2022/08/12 03:00:43;;;;;;;0.00;0.00;;;17.00;99.90;;;;;;4963491;28;20503;-75
2022/08/12 03:03:13;;;;;;;0.00;0.00;;;17.00;99.90;;;;;;4964050;28;20453;-75
2022/08/12 03:05:48;;;;;;;0.00;0.00;;;17.10;99.90;;;;;;4963332;28;21149;-73
2022/08/12 03:08:22;;;;;;;0.00;0.00;;;17.10;99.90;;;;;;4963787;28;20462;-75
2022/08/12 03:11:04;;;;;;;0.00;0.00;;;17.10;99.90;;;;;;4963521;28;20557;-75
2022/08/12 03:13:42;;;;;;;0.00;0.00;;;17.00;99.90;;;;;;4963789;28;20483;-75
2022/08/12 03:16:10;;;;;;;0.00;0.00;;;17.00;99.90;;;;;;4963469;28;20456;-73
2022/08/12 03:18:40;;;;;;;0.00;0.00;;;17.00;99.90;;;;;;4962929;28;20489;-73
2022/08/12 03:21:16;;;;;;;0.00;0.00;;;17.00;99.90;;;;;;4964607;28;20510;-73
2022/08/12 03:24:07;;;;;;;0.00;0.00;;;17.00;99.90;;;;;;4963310;28;20447;-73
2022/08/12 03:26:37;;;;;;;0.00;0.00;;;17.00;99.90;;;;;;4962887;28;20886;-74
2022/08/12 03:29:06;;;;;;;0.00;0.00;;;16.90;99.90;;;;;;4962721;28;20457;-75
2022/08/12 03:31:34;;;;;;;0.00;0.00;;;17.00;99.90;;;;;;4962035;28;20896;-75
2022/08/12 03:34:05;;;;;;;0.00;0.00;;;17.00;99.90;;;;;;4962103;28;20447;-74
2022/08/12 03:36:35;;;;;;;0.00;0.00;;;16.90;99.90;;;;;;4962620;28;20925;-73
2022/08/12 03:39:24;;;;;;;0.00;0.00;;;16.90;99.90;;;;;;4962058;28;20659;-73
2022/08/12 03:42:21;;;;;;;0.00;0.00;;;16.90;99.90;;;;;;4961700;28;20456;-75
2022/08/12 04:01:51;;;;;;;0.00;0.00;;;16.70;99.90;;;;;;4961504;28;20527;-74
2022/08/12 04:04:21;;;;;;;0.00;0.00;;;16.60;99.90;;;;;;4961507;28;20444;-75
2022/08/12 04:06:50;;;;;;;0.00;0.00;;;16.60;99.90;;;;;;4962353;28;20452;-74
2022/08/12 04:09:20;;;;;;;0.00;0.00;;;16.60;99.90;;;;;;4961598;28;20842;-73
2022/08/12 04:14:36;;;;;;;0.00;0.00;;;16.70;99.90;;;;;;4961127;28;20440;-72
2022/08/12 04:17:04;;;;;;;0.00;0.00;;;16.70;99.90;;;;;;4961288;28;20842;-73
2022/08/12 04:19:33;;;;;;;0.00;0.00;;;16.70;99.90;;;;;;4960587;28;20507;-73
2022/08/12 04:22:01;;;;;;;0.00;0.00;;;16.80;99.90;;;;;;4961154;28;20464;-73
2022/08/12 04:24:33;;;;;;;0.00;0.00;;;16.80;99.90;;;;;;4961344;28;20453;-72
2022/08/12 04:27:08;;;;;;;0.00;0.00;;;16.80;99.90;;;;;;4961122;28;20456;-72
2022/08/12 04:29:37;;;;;;;0.00;0.00;;;16.80;99.90;;;;;;4961235;28;21132;-72
2022/08/12 04:32:24;;;;;;;0.00;0.00;;;16.80;99.90;;;;;;4960982;28;20522;-72
2022/08/12 04:34:53;;;;;;;0.00;0.00;;;16.80;99.90;;;;;;4960814;28;20454;-72
2022/08/12 04:37:22;;;;;;;0.00;0.00;;;16.80;99.90;;;;;;4960872;28;20468;-72
2022/08/12 04:39:50;;;;;;;0.00;0.00;;;16.90;99.90;;;;;;4960567;28;20841;-72
2022/08/12 04:42:20;;;;;;;0.00;0.00;;;16.90;99.90;;;;;;4961050;28;20450;-74
2022/08/12 04:44:48;;;;;;;0.00;0.00;;;16.90;99.90;;;;;;4961232;28;20973;-73
2022/08/12 04:47:16;;;;;;;0.00;0.00;;;16.90;99.90;;;;;;4960579;28;20549;-73
2022/08/12 04:49:46;;;;;;;0.00;0.00;;;16.90;99.90;;;;;;4961512;28;20471;-73
2022/08/12 04:52:15;;;;;;;0.00;0.00;;;16.90;99.90;;;;;;4968474;28;20460;-73
2022/08/12 04:54:43;;;;;;;0.00;0.00;;;16.90;99.90;;;;;;4962475;28;20471;-74
2022/08/12 04:57:11;;;;;;;0.00;0.00;;;16.90;99.90;;;;;;4960716;28;20463;-73
2022/08/12 04:59:40;;;;;;;0.00;0.00;;;17.00;99.90;;;;;;4960950;28;20479;-73
2022/08/12 05:02:16;;;;;;;0.00;0.00;;;17.00;99.90;;;;;;4961054;28;20625;-71
2022/08/12 05:04:50;;;;;;;0.00;0.00;;;17.10;99.90;;;;;;4960689;28;21112;-71
2022/08/12 05:07:18;;;;;;;0.00;0.00;;;17.10;99.90;;;;;;4960699;28;20458;-70
2022/08/12 05:09:46;;;;;;;0.00;0.00;;;17.10;99.90;;;;;;4959699;28;21054;-70
2022/08/12 05:12:35;;;;;;;0.00;0.00;;;17.10;99.90;;;;;;4960571;28;20451;-71
2022/08/12 05:15:06;;;;;;;0.00;0.00;;;17.20;99.90;;;;;;4960102;28;20455;-69
2022/08/12 05:17:55;;;;;;;0.00;0.00;;;17.20;99.90;;;;;;4960837;28;20468;-71
2022/08/12 05:20:26;;;;;;;0.00;0.00;;;17.20;99.90;;;;;;4960107;28;20563;-69
2022/08/12 05:23:06;;;;;;;0.00;0.00;;;17.30;99.90;;;;;;4960325;28;20460;-71
2022/08/12 05:25:41;;;;;;;0.00;0.00;;;17.40;99.90;;;;;;4959869;28;21052;-71
2022/08/12 05:28:11;;;;;;;0.00;0.00;;;17.40;99.90;;;;;;4968805;28;20527;-71
2022/08/12 05:30:42;;;;;;;0.00;0.00;;;17.50;99.90;;;;;;4965977;28;20447;-71
2022/08/12 05:33:11;;;;;;;0.00;0.00;;;17.50;99.90;;;;;;4960016;28;20550;-71
2022/08/12 05:35:41;;;;;;;0.00;0.00;;;17.50;99.90;;;;;;4960022;28;20445;-71
2022/08/12 05:40:56;;;;;;;0.00;0.00;;;17.70;99.90;;;;;;4959464;28;20785;-70
2022/08/12 05:43:24;;;;;;;0.00;0.00;;;17.70;99.90;;;;;;4959650;28;20845;-70
2022/08/12 05:45:53;;;;;;;0.00;0.00;;;17.80;99.90;;;;;;4958845;28;21010;-71
2022/08/12 05:48:24;;;;;;;0.00;0.00;;;17.90;99.90;;;;;;4959589;28;20812;-71
2022/08/12 05:50:52;;;;;;;0.00;0.00;;;18.00;99.90;;;;;;4959532;28;20732;-71
2022/08/12 05:53:20;;;;;;;0.00;0.00;;;18.10;99.90;;;;;;4959184;28;20449;-71
2022/08/12 05:55:48;;;;;;;0.00;0.00;;;18.10;99.90;;;;;;4957304;28;20442;-71
2022/08/12 05:58:16;;;;;;;0.00;0.00;;;18.20;99.90;;;;;;4958960;28;20463;-71
2022/08/12 06:00:44;;;;;;;0.00;0.00;;;18.30;99.90;;;;;;4959873;28;20496;-72
2022/08/12 06:03:16;;;;;;;0.00;0.00;;;18.40;99.90;;;;;;4959950;28;20716;-72
2022/08/12 06:05:48;;;;;;;0.00;0.00;;;18.50;99.90;;;;;;4959746;28;20458;-72
2022/08/12 06:08:23;;;;;;;0.00;0.00;;;18.50;99.90;;;;;;4958010;28;20975;-72
2022/08/12 06:10:51;;;;;;;0.00;0.00;;;18.60;99.90;;;;;;4948543;28;21009;-71
2022/08/12 06:13:19;;;;;;;0.00;0.00;;;18.70;99.90;;;;;;4952923;28;20452;-71
2022/08/12 06:15:55;;;;;;;0.00;0.00;;;18.80;99.90;;;;;;4959584;28;21242;-73
2022/08/12 06:18:25;;;;;;;0.00;0.00;;;18.90;99.90;;;;;;4951808;28;20950;-73
2022/08/12 06:20:57;;;;;;;0.00;0.00;;;19.00;99.90;;;;;;4944503;28;20587;-67
2022/08/12 06:23:28;;;;;;;0.00;0.00;;;19.10;99.90;;;;;;4947389;28;20766;-67
2022/08/12 06:25:58;;;;;;;0.00;0.00;;;19.20;99.90;;;;;;4948264;28;20696;-67
2022/08/12 06:28:29;;;;;;;0.00;0.00;;;19.30;99.90;;;;;;4948222;28;20475;-69
2022/08/12 06:30:58;;;;;;;0.00;0.00;;;19.40;99.90;;;;;;4953197;28;20786;-66
2022/08/12 06:33:49;;;;;;;0.00;0.00;;;19.50;99.90;;;;;;4943070;28;20824;-68
2022/08/12 06:36:36;;;;;;;0.00;0.00;;;19.60;99.90;;;;;;4952104;28;20455;-68
2022/08/12 06:39:06;;;;;;;0.00;0.00;;;19.70;99.90;;;;;;4959364;28;20643;-68
2022/08/12 06:44:49;;;;;;;0.00;0.00;;;19.80;99.90;;;;;;4948365;28;20978;-67
2022/08/12 06:47:18;;;;;;;0.00;0.00;;;19.90;99.90;;;;;;4960450;28;20447;-67
2022/08/12 06:49:48;;;;;;;0.00;0.00;;;20.00;99.90;;;;;;4959459;28;20559;-68
2022/08/12 06:52:18;;;;;;;0.00;0.00;;;20.10;99.90;;;;;;4953018;28;20584;-68
2022/08/12 06:54:45;;;;;;;0.00;0.00;;;20.20;99.90;;;;;;4949202;28;20689;-68
2022/08/12 06:57:13;;;;;;;0.00;0.00;;;20.30;99.90;;;;;;4959827;28;20435;-68
2022/08/12 07:00:01;;;;;;;0.00;0.00;;;20.40;99.90;;;;;;4960029;28;20428;-68
2022/08/12 07:02:29;;;;;;;0.00;0.00;;;20.50;99.90;;;;;;4962576;28;20518;-68
2022/08/12 07:05:08;;;;;;;0.00;0.00;;;20.70;99.90;;;;;;4960850;28;20527;-68
2022/08/12 07:07:37;;;;;;;0.00;0.00;;;20.80;99.90;;;;;;4962418;28;20865;-68
2022/08/12 07:10:06;;;;;;;0.00;0.00;;;20.80;99.90;;;;;;4956414;28;20495;-76
2022/08/12 07:12:35;;;;;;;0.00;0.00;;;20.90;99.90;;;;;;4954163;28;20710;-73
2022/08/12 07:15:05;;;;;;;0.00;0.00;;;21.00;99.90;;;;;;4957282;28;20729;-74
2022/08/12 07:17:35;;;;;;;0.00;0.00;;;21.10;99.90;;;;;;4951503;28;20939;-74
2022/08/12 07:20:10;;;;;;;0.00;0.00;;;21.30;99.90;;;;;;4949039;28;20714;-74
2022/08/12 07:22:59;;;;;;;0.00;0.00;;;21.40;99.90;;;;;;4954898;28;20842;-74
2022/08/12 07:25:33;;;;;;;0.00;0.00;;;21.50;99.90;;;;;;4962378;28;20539;-74
2022/08/12 07:28:10;;;;;;;0.00;0.00;;;21.60;99.90;;;;;;4959038;28;21095;-74
2022/08/12 07:30:47;;;;;;;0.00;0.00;;;21.70;99.90;;;;;;4961838;28;20946;-74
2022/08/12 07:33:15;;;;;;;0.00;0.00;;;21.80;99.90;;;;;;4960922;28;20480;-74
2022/08/12 07:35:46;;;;;;;0.00;0.00;;;21.90;99.90;;;;;;4962411;28;20437;-74
2022/08/12 07:38:24;;;;;;;0.00;0.00;;;22.00;99.90;;;;;;4960515;28;20513;-74
2022/08/12 07:41:01;;;;;;;0.00;0.00;;;22.00;99.90;;;;;;4949321;28;20489;-72
2022/08/12 07:43:29;;;;;;;0.00;0.00;;;22.10;99.90;;;;;;4955215;28;20567;-73
2022/08/12 07:45:59;;;;;;;0.00;0.00;;;22.20;99.90;;;;;;4952739;28;20456;-75
2022/08/12 07:48:27;;;;;;;0.00;0.00;;;22.30;99.90;;;;;;4950428;28;20478;-73
2022/08/12 07:50:56;;;;;;;0.00;0.00;;;22.40;99.90;;;;;;4943777;28;20462;-74
2022/08/12 07:53:24;;;;;;;0.00;0.00;;;22.50;99.90;;;;;;4944017;28;20975;-73
2022/08/12 07:55:52;;;;;;;0.00;0.00;;;22.60;99.90;;;;;;4963263;28;20508;-76
2022/08/12 07:58:20;;;;;;;0.00;0.00;;;22.70;99.90;;;;;;4962073;28;20471;-75
2022/08/12 08:00:48;;;;;;;0.00;0.00;;;22.70;99.90;;;;;;4962867;28;20477;-74
2022/08/12 08:03:16;;;;;;;0.00;0.00;;;22.90;99.90;;;;;;4963325;28;20536;-74
2022/08/12 08:05:45;;;;;;;0.00;0.00;;;22.90;99.90;;;;;;4963234;28;20454;-72
2022/08/12 08:08:16;;;;;;;0.00;0.00;;;23.00;99.90;;;;;;4962546;28;20470;-74
2022/08/12 08:10:45;;;;;;;0.00;0.00;;;23.20;99.90;;;;;;4962308;28;20533;-75
2022/08/12 08:13:12;;;;;;;0.00;0.00;;;23.30;99.90;;;;;;4962708;28;20453;-72
2022/08/12 08:15:40;;;;;;;0.00;0.00;;;23.40;99.90;;;;;;4962843;28;20717;-71
2022/08/12 08:18:29;;;;;;;0.00;0.00;;;23.40;99.90;;;;;;4971053;28;20785;-72
2022/08/12 08:20:56;;;;;;;0.00;0.00;;;23.50;99.90;;;;;;4962122;28;20577;-74
2022/08/12 08:24:13;;;;;;;0.00;0.00;;;23.60;99.90;;;;;;4962139;28;20435;-74
2022/08/12 08:26:25;;;;;;;0.00;0.00;;;23.60;99.90;;;;;;4967457;28;20786;-72
2022/08/12 08:28:53;;;;;;;0.00;0.00;;;23.60;99.90;;;;;;4961498;28;20473;-73
2022/08/12 08:31:21;;;;;;;0.00;0.00;;;23.60;99.90;;;;;;4961721;28;20910;-71
2022/08/12 08:33:49;;;;;;;0.00;0.00;;;23.70;99.90;;;;;;4961550;28;21002;-72
2022/08/12 08:36:38;;;;;;;0.00;0.00;;;23.90;99.90;;;;;;4966545;28;20436;-71
2022/08/12 08:39:07;;;;;;;0.00;0.00;;;24.00;99.90;;;;;;4965487;28;20697;-74
2022/08/12 08:44:42;;;;;;;0.00;0.00;;;24.20;99.90;;;;;;4962182;28;20996;-72
2022/08/12 08:47:11;;;;;;;0.00;0.00;;;24.40;99.90;;;;;;4969017;28;21026;-72
2022/08/12 08:53:26;;;;;;;0.00;0.00;;;24.60;99.90;;;;;;4961287;28;20422;-73
2022/08/12 08:55:55;;;;;;;0.00;0.00;;;24.80;99.90;;;;;;4960375;28;20450;-72
2022/08/12 08:58:32;;;;;;;0.00;0.00;;;24.90;99.90;;;;;;4960385;28;20584;-72
2022/08/12 09:01:00;;;;;;;0.00;0.00;;;25.00;99.90;;;;;;4960146;28;20497;-68
2022/08/12 09:03:29;;;;;;;0.00;0.00;;;25.10;99.90;;;;;;4960070;28;20517;-67
2022/08/12 09:06:18;;;;;;;0.00;0.00;;;25.10;99.90;;;;;;4960026;28;20439;-68
2022/08/12 09:09:04;;;;;;;0.00;0.00;;;25.30;99.90;;;;;;4960056;28;20795;-69
2022/08/12 09:14:42;;;;;;;0.00;0.00;;;25.50;99.90;;;;;;4959957;28;20443;-67
2022/08/12 09:17:32;;;;;;;0.00;0.00;;;25.50;99.90;;;;;;4959585;28;21068;-69
2022/08/12 09:20:15;;;;;;;0.00;0.00;;;25.70;99.90;;;;;;4958771;28;20549;-69
2022/08/12 09:22:43;;;;;;;0.00;0.00;;;25.80;99.90;;;;;;4960184;28;20982;-68
2022/08/12 09:25:17;;;;;;;0.00;0.00;;;25.90;99.90;;;;;;4960359;28;20877;-69
2022/08/12 09:27:54;;;;;;;0.00;0.00;;;26.00;99.90;;;;;;4958120;28;20484;-72
2022/08/12 09:30:46;;;;;;;0.00;0.00;;;26.10;99.90;;;;;;4944951;28;20436;-67
2022/08/12 09:33:17;;;;;;;0.00;0.00;;;26.20;99.90;;;;;;4959748;28;20447;-66
2022/08/12 09:36:06;;;;;;;0.00;0.00;;;26.30;99.90;;;;;;4961265;28;20738;-69
2022/08/12 09:38:33;;;;;;;0.00;0.00;;;26.40;99.90;;;;;;4961364;28;20505;-68
2022/08/12 09:41:02;;;;;;;0.00;0.00;;;26.50;99.90;;;;;;4962375;28;20444;-67
2022/08/12 09:46:57;;;;;;;0.00;0.00;;;26.70;99.90;;;;;;4962237;28;20621;-68
2022/08/12 09:49:27;;;;;;;0.00;0.00;;;26.70;99.90;;;;;;4960131;28;20541;-69
2022/08/12 09:51:56;;;;;;;0.00;0.00;;;26.70;99.90;;;;;;4959901;28;20448;-69
2022/08/12 09:54:26;;;;;;;0.00;0.00;;;26.80;99.90;;;;;;4960064;28;20434;-70
2022/08/12 09:57:06;;;;;;;0.00;0.00;;;26.90;99.90;;;;;;4951929;28;20506;-67
2022/08/12 09:59:56;;;;;;;0.00;0.00;;;26.90;99.90;;;;;;4945781;28;20831;-69
2022/08/12 10:03:11;;;;;;;0.00;0.00;;;27.00;99.90;;;;;;4955782;28;20476;-69
2022/08/12 10:06:00;;;;;;;0.00;0.00;;;27.00;99.90;;;;;;4915265;28;20454;-68
2022/08/12 10:08:48;;;;;;;0.00;0.00;;;27.20;99.90;;;;;;4945048;28;20551;-69
2022/08/12 10:14:27;;;;;;;0.00;0.00;;;27.30;98.60;;;;;;4940642;28;20430;-70
2022/08/12 10:17:05;;;;;;;0.00;0.00;;;27.40;98.70;;;;;;4950617;28;20449;-70
2022/08/12 10:19:36;;;;;;;0.00;0.00;;;27.50;99.40;;;;;;4962610;28;20549;-69
2022/08/12 10:22:04;;;;;;;0.00;0.00;;;27.60;99.90;;;;;;4959535;28;20519;-68
2022/08/12 10:29:35;;;;;;;0.00;0.00;;;27.60;99.40;;;;;;4959438;28;20453;-67
2022/08/12 10:30:32;;;;;;;0.00;0.00;;;27.70;98.70;;;;;;4959972;28;21127;-69
2022/08/12 10:33:10;;;;;;;0.00;0.00;;;27.80;98.70;;;;;;4947162;28;20570;-69
2022/08/12 10:35:46;;;;;;;0.00;0.00;;;27.80;99.10;;;;;;4961513;28;20449;-69
2022/08/12 10:38:19;;;;;;;0.00;0.00;;;27.80;99.10;;;;;;4946194;28;20471;-69
2022/08/12 10:44:12;;;;;;;0.00;0.00;;;27.90;98.50;;;;;;4948816;28;20464;-69
2022/08/12 10:46:45;;;;;;;0.00;0.00;;;27.90;98.20;;;;;;4963064;28;20799;-69
2022/08/12 10:49:18;;;;;;;0.00;0.00;;;27.90;98.30;;;;;;4953149;28;20571;-66
2022/08/12 10:52:06;;;;;;;0.00;0.00;;;28.10;98.40;;;;;;4943815;28;20465;-68
2022/08/12 10:54:55;;;;;;;0.00;0.00;;;28.10;97.90;;;;;;4943904;28;20452;-68
2022/08/12 10:57:25;;;;;;;0.00;0.00;;;28.30;97.70;;;;;;4943510;28;20446;-67
2022/08/12 11:00:14;;;;;;;0.00;0.00;;;28.30;97.50;;;;;;4959244;28;20457;-67
2022/08/12 11:03:02;;;;;;;0.00;0.00;;;28.30;97.30;;;;;;4962833;28;20787;-68
2022/08/12 11:05:51;;;;;;;0.00;0.00;;;28.40;97.20;;;;;;4964252;28;20456;-68
2022/08/12 11:08:40;;;;;;;0.00;0.00;;;28.40;96.90;;;;;;4963569;28;20469;-67
2022/08/12 11:11:16;;;;;;;0.00;0.00;;;28.40;96.50;;;;;;4962276;28;20568;-67
2022/08/12 11:14:04;;;;;;;0.00;0.00;;;28.50;96.00;;;;;;4962554;28;20752;-67
2022/08/12 11:16:32;;;;;;;0.00;0.00;;;28.50;95.80;;;;;;4962040;28;20454;-67
2022/08/12 11:19:02;;;;;;;0.00;0.00;;;28.60;95.90;;;;;;4946215;28;20791;-67
2022/08/12 11:21:33;;;;;;;0.00;0.00;;;28.70;95.70;;;;;;4942825;28;20478;-67
2022/08/12 11:24:21;;;;;;;0.00;0.00;;;28.70;96.00;;;;;;4961851;28;20486;-67
2022/08/12 11:27:00;;;;;;;0.00;0.00;;;28.70;95.60;;;;;;4962019;28;20459;-67
2022/08/12 11:29:35;;;;;;;0.00;0.00;;;28.70;95.40;;;;;;4961332;28;20474;-67
2022/08/12 11:32:23;;;;;;;0.00;0.00;;;28.80;95.00;;;;;;4961769;28;20632;-67
2022/08/12 11:34:52;;;;;;;0.00;0.00;;;28.80;94.90;;;;;;4961317;28;21017;-67
2022/08/12 11:37:24;;;;;;;0.00;0.00;;;28.80;95.00;;;;;;4961689;28;20955;-67
2022/08/12 11:39:54;;;;;;;0.00;0.00;;;28.80;94.70;;;;;;4956390;28;20474;-66
2022/08/12 11:42:33;;;;;;;0.00;0.00;;;28.90;93.80;;;;;;4954232;28;20960;-66
2022/08/12 11:45:02;;;;;;;0.00;0.00;;;29.00;94.10;;;;;;4941736;28;20470;-67
2022/08/12 11:47:31;;;;;;;0.00;0.00;;;29.00;94.20;;;;;;4958909;28;20866;-68
2022/08/12 11:49:59;;;;;;;0.00;0.00;;;29.00;93.80;;;;;;4961702;28;20714;-68
2022/08/12 11:52:29;;;;;;;0.00;0.00;;;29.10;93.60;;;;;;4961285;28;20460;-68
2022/08/12 11:55:17;;;;;;;0.00;0.00;;;29.10;93.50;;;;;;4961309;28;20947;-68
2022/08/12 11:57:52;;;;;;;0.00;0.00;;;29.10;92.60;;;;;;4954468;28;20515;-66
2022/08/12 12:00:40;;;;;;;0.00;0.00;;;29.10;92.60;;;;;;4948462;28;20474;-66
2022/08/12 12:03:28;;;;;;;0.00;0.00;;;29.10;92.50;;;;;;4950732;28;20559;-67
2022/08/12 12:06:13;;;;;;;0.00;0.00;;;29.20;92.60;;;;;;4950108;28;20879;-66
2022/08/12 12:08:45;;;;;;;0.00;0.00;;;29.20;92.80;;;;;;4951523;28;20586;-67
2022/08/12 12:11:20;;;;;;;0.00;0.00;;;29.20;92.60;;;;;;4941526;28;20909;-67
2022/08/12 12:13:48;;;;;;;0.00;0.00;;;29.30;92.60;;;;;;4947045;28;20445;-67
2022/08/12 12:16:36;;;;;;;0.00;0.00;;;29.40;92.50;;;;;;4941530;29;20819;-67
2022/08/12 12:19:08;;;;;;;0.00;0.00;;;29.40;92.20;;;;;;4945281;28;20867;-68
2022/08/12 12:21:37;;;;;;;0.00;0.00;;;29.50;92.40;;;;;;4941194;29;20463;-68
2022/08/12 12:24:17;;;;;;;0.00;0.00;;;29.50;92.30;;;;;;4954037;28;20750;-68
2022/08/12 12:26:50;;;;;;;0.00;0.00;;;29.50;92.30;;;;;;4960581;28;20526;-68
2022/08/12 12:29:28;;;;;;;0.00;0.00;;;29.50;92.60;;;;;;4958029;28;20821;-67
2022/08/12 12:32:16;;;;;;;0.00;0.00;;;29.60;92.80;;;;;;4954294;28;21014;-69
2022/08/12 12:34:45;;;;;;;0.00;0.00;;;29.60;92.70;;;;;;4951837;28;20460;-67
2022/08/12 12:37:34;;;;;;;0.00;0.00;;;29.70;92.50;;;;;;4942545;28;20443;-67
2022/08/12 12:40:24;;;;;;;0.00;0.00;;;29.70;92.20;;;;;;4942534;29;20452;-68
2022/08/12 12:42:58;;;;;;;0.00;0.00;;;29.80;91.70;;;;;;4946038;28;20463;-68
2022/08/12 12:45:34;;;;;;;0.00;0.00;;;29.70;91.40;;;;;;4960812;28;20518;-67
2022/08/12 12:48:04;;;;;;;0.00;0.00;;;29.70;91.20;;;;;;4960646;28;20467;-67
2022/08/12 12:50:33;;;;;;;0.00;0.00;;;29.80;91.00;;;;;;4960519;28;20944;-67
2022/08/12 12:53:20;;;;;;;0.00;0.00;;;29.80;90.70;;;;;;4960708;28;20597;-67
2022/08/12 12:56:15;;;;;;;0.00;0.00;;;29.70;90.60;;;;;;4960471;28;20440;-67
2022/08/12 12:58:43;;;;;;;0.00;0.00;;;29.80;90.50;;;;;;4960041;28;20765;-67
2022/08/12 13:01:12;;;;;;;0.00;0.00;;;29.80;90.00;;;;;;4959921;28;21046;-67
2022/08/12 13:03:55;;;;;;;0.00;0.00;;;29.90;90.00;;;;;;4960126;28;20483;-67
2022/08/12 13:06:29;;;;;;;0.00;0.00;;;29.90;89.60;;;;;;4955036;28;21135;-67
2022/08/12 13:09:00;;;;;;;0.00;0.00;;;29.80;88.50;;;;;;4955092;28;20475;-65
2022/08/12 13:11:32;;;;;;;0.00;0.00;;;29.90;89.40;;;;;;4953393;28;20457;-67
2022/08/12 13:14:18;;;;;;;0.00;0.00;;;29.90;89.40;;;;;;4940805;28;20540;-68
2022/08/12 13:16:59;;;;;;;0.00;0.00;;;29.90;88.90;;;;;;4960109;28;20935;-67
2022/08/12 13:19:29;;;;;;;0.00;0.00;;;29.90;88.70;;;;;;4948437;28;20484;-67
2022/08/12 13:22:18;;;;;;;0.00;0.00;;;30.00;89.30;;;;;;4944515;28;20491;-68
2022/08/12 13:24:49;;;;;;;0.00;0.00;;;29.90;89.60;;;;;;4941895;28;20495;-69
2022/08/12 13:27:28;;;;;;;0.00;0.00;;;30.00;89.90;;;;;;4947265;28;20539;-69
2022/08/12 13:30:06;;;;;;;0.00;0.00;;;30.00;90.00;;;;;;4946358;28;20456;-69
2022/08/12 13:32:40;;;;;;;0.00;0.00;;;30.00;89.60;;;;;;4940752;29;20887;-69
2022/08/12 13:35:09;;;;;;;0.00;0.00;;;30.00;90.00;;;;;;4946501;28;20448;-69
2022/08/12 13:37:58;;;;;;;0.00;0.00;;;30.10;89.30;;;;;;4957041;28;20612;-69
2022/08/12 13:40:31;;;;;;;0.00;0.00;;;30.10;88.90;;;;;;4943838;28;20451;-69
2022/08/12 13:43:05;;;;;;;0.00;0.00;;;30.20;89.10;;;;;;4948902;28;20448;-69
2022/08/12 13:45:34;;;;;;;0.00;0.00;;;30.20;89.90;;;;;;4941545;28;21018;-69
2022/08/12 13:48:05;;;;;;;0.00;0.00;;;30.20;90.20;;;;;;4940677;28;20468;-69
2022/08/12 13:50:36;;;;;;;0.00;0.00;;;30.20;90.00;;;;;;4943706;28;20487;-69
2022/08/12 13:53:07;;;;;;;0.00;0.00;;;30.30;88.10;;;;;;4949859;28;20461;-69
2022/08/12 13:55:53;;;;;;;0.00;0.00;;;30.20;87.80;;;;;;4940147;28;20460;-68
2022/08/12 13:58:28;;;;;;;0.00;0.00;;;30.20;87.50;;;;;;4948857;28;20475;-69
2022/08/12 14:00:58;;;;;;;0.00;0.00;;;30.20;88.00;;;;;;4958281;28;20435;-69
2022/08/12 14:03:26;;;;;;;0.00;0.00;;;30.20;87.00;;;;;;4947997;28;20695;-68
2022/08/12 14:06:16;;;;;;;0.00;0.00;;;30.20;86.80;;;;;;4960380;28;20974;-67
2022/08/12 14:08:47;;;;;;;0.00;0.00;;;30.20;86.80;;;;;;4964496;28;20460;-68
2022/08/12 14:11:18;;;;;;;0.00;0.00;;;30.30;87.50;;;;;;4964027;28;20435;-69
2022/08/12 14:13:48;;;;;;;0.00;0.00;;;30.30;87.60;;;;;;4954128;28;21010;-68
2022/08/12 14:16:36;;;;;;;0.00;0.00;;;30.30;87.30;;;;;;4950597;28;20440;-68
2022/08/12 14:19:17;;;;;;;0.00;0.00;;;30.30;86.60;;;;;;4945842;28;20464;-69
2022/08/12 14:21:53;;;;;;;0.00;0.00;;;30.20;86.70;;;;;;4944211;28;20819;-69
2022/08/12 14:24:35;;;;;;;0.00;0.00;;;30.20;86.10;;;;;;4953067;28;20514;-69
2022/08/12 14:27:08;;;;;;;0.00;0.00;;;30.20;85.60;;;;;;4962870;28;20458;-69
2022/08/12 14:29:41;;;;;;;0.00;0.00;;;30.20;85.60;;;;;;4962453;28;20478;-69
2022/08/12 14:32:33;;;;;;;0.00;0.00;;;30.20;85.90;;;;;;4963070;28;20582;-69
2022/08/12 14:35:02;;;;;;;0.00;0.00;;;30.10;86.60;;;;;;4963101;28;20927;-69
2022/08/12 14:37:30;;;;;;;0.00;0.00;;;30.10;87.00;;;;;;4962503;28;20439;-68
2022/08/12 14:40:18;;;;;;;0.00;0.00;;;30.10;87.50;;;;;;4943220;28;20456;-72
2022/08/12 14:42:55;;;;;;;0.00;0.00;;;30.10;86.70;;;;;;4943116;29;20467;-69
2022/08/12 14:45:25;;;;;;;0.00;0.00;;;30.10;86.80;;;;;;4952129;28;20577;-70
2022/08/12 14:48:15;;;;;;;0.00;0.00;;;30.00;86.30;;;;;;4962121;28;20630;-70
2022/08/12 14:50:44;;;;;;;0.00;0.00;;;30.00;86.40;;;;;;4960752;28;20740;-70
2022/08/12 14:53:32;;;;;;;0.00;0.00;;;30.10;86.30;;;;;;4960261;28;20436;-69
2022/08/12 14:56:24;;;;;;;0.00;0.00;;;30.10;86.20;;;;;;4959474;28;20745;-70
2022/08/12 15:02:27;;;;;;;0.00;0.00;;;30.00;85.90;;;;;;4961771;28;20963;-70
2022/08/12 15:04:57;;;;;;;0.00;0.00;;;30.00;86.60;;;;;;4962375;28;20483;-69
2022/08/12 15:07:26;;;;;;;0.00;0.00;;;29.90;86.10;;;;;;4961855;28;20824;-69
2022/08/12 15:10:12;;;;;;;0.00;0.00;;;30.00;85.90;;;;;;4953448;28;20488;-70
2022/08/12 15:12:40;;;;;;;0.00;0.00;;;30.00;84.70;;;;;;4958036;28;20467;-70
2022/08/12 15:15:09;;;;;;;0.00;0.00;;;30.00;85.20;;;;;;4961782;28;20487;-70
2022/08/12 15:17:39;;;;;;;0.00;0.00;;;30.10;83.80;;;;;;4962325;28;20517;-70
2022/08/12 15:20:08;;;;;;;0.00;0.00;;;30.10;83.70;;;;;;4961447;28;21166;-70
2022/08/12 15:22:56;;;;;;;0.00;0.00;;;30.10;84.00;;;;;;4955711;28;21040;-69
2022/08/12 15:25:24;;;;;;;0.00;0.00;;;30.10;84.30;;;;;;4962822;28;20483;-69
2022/08/12 15:27:54;;;;;;;0.00;0.00;;;30.10;83.80;;;;;;4968338;28;20468;-68
2022/08/12 15:30:40;;;;;;;0.00;0.00;;;30.10;84.30;;;;;;4964118;28;21169;-69
2022/08/12 15:33:11;;;;;;;0.00;0.00;;;30.10;84.30;;;;;;4963917;28;20440;-69
2022/08/12 15:35:49;;;;;;;0.00;0.00;;;30.00;85.10;;;;;;4958121;28;20543;-68
2022/08/12 15:38:22;;;;;;;0.00;0.00;;;30.00;84.30;;;;;;4955125;28;20550;-68
2022/08/12 15:40:53;;;;;;;0.00;0.00;;;30.00;84.80;;;;;;4955204;28;20939;-68
2022/08/12 15:43:23;;;;;;;0.00;0.00;;;30.00;85.00;;;;;;4961415;28;20454;-68
2022/08/12 15:46:11;;;;;;;0.00;0.00;;;29.90;84.60;;;;;;4960707;28;20473;-68
2022/08/12 15:48:44;;;;;;;0.00;0.00;;;29.90;84.80;;;;;;4956922;28;20493;-68
2022/08/12 15:51:29;;;;;;;0.00;0.00;;;29.90;85.00;;;;;;4959180;28;20514;-68